Time;durP1;ratioP1;P1;durP2;ratioP2;P2;SDS_P1;SDS_P2;PMS_P1;PMS_P2;Temp;Humidity;BMP_temperature;BMP_pressure;BME280_temperature;BME280_humidity;BME280_pressure;Samples;Min_cycle;Max_cycle;Signal;HPM_P1;HPM_P2
2024/02/09 00:09:12;;;;;;;0.20;0.10;;;;;;;;;;5017730;28;20044;-88
2024/02/09 00:12:25;;;;;;;0.20;0.10;;;;;;;;;;5014491;28;20792;-89
2024/02/09 00:18:53;;;;;;;0.20;0.10;;;;;;;;;;4990528;28;20060;-88
2024/02/09 00:28:20;;;;;;;0.20;0.10;;;;;;;;;;4957452;28;20448;-85
2024/02/09 00:30:49;;;;;;;0.20;0.10;;;;;;;;;;4995964;28;20691;-85
2024/02/09 00:33:53;;;;;;;;;;;;;;;;;;;;;
2024/02/09 00:43:29;;;;;;;0.20;0.10;;;;;;;;;;4959124;28;20061;-87
2024/02/09 00:49:58;;;;;;;0.20;0.10;;;;;;;;;;4943290;28;20615;-87
2024/02/09 00:52:27;;;;;;;0.20;0.10;;;;;;;;;;4960297;23;20062;-82
2024/02/09 00:54:53;;;;;;;0.20;0.10;;;;;;;;;;5003963;28;20081;-82
2024/02/09 00:57:19;;;;;;;0.20;0.10;;;;;;;;;;4984665;28;20131;-81
2024/02/09 00:59:46;;;;;;;0.20;0.10;;;;;;;;;;4991896;28;20421;-82
2024/02/09 01:02:12;;;;;;;0.20;0.00;;;;;;;;;;4997169;28;20396;-82
2024/02/09 01:04:38;;;;;;;0.20;0.10;;;;;;;;;;4986418;28;20522;-83
2024/02/09 01:07:05;;;;;;;0.20;0.08;;;;;;;;;;4973561;28;20392;-84
2024/02/09 01:09:32;;;;;;;0.20;0.10;;;;;;;;;;4993721;28;20049;-82
2024/02/09 01:11:58;;;;;;;0.20;0.00;;;;;;;;;;4976747;28;20131;-83
2024/02/09 02:44:50;;;;;;;0.20;0.10;;;;;;;;;;4997618;28;20502;-84
2024/02/09 02:47:16;;;;;;;0.20;0.10;;;;;;;;;;4994342;28;20072;-82
2024/02/09 03:06:10;;;;;;;0.20;0.10;;;;;;;;;;4990710;28;20135;-82
2024/02/09 03:08:36;;;;;;;0.20;0.10;;;;;;;;;;4982972;28;20081;-83
2024/02/09 03:11:06;;;;;;;0.20;0.10;;;;;;;;;;4974631;28;20046;-83
2024/02/09 03:13:33;;;;;;;0.20;0.10;;;;;;;;;;4977553;28;20379;-82
2024/02/09 03:15:59;;;;;;;0.20;0.10;;;;;;;;;;4972466;28;20065;-82
2024/02/09 03:18:26;;;;;;;0.20;0.10;;;;;;;;;;4993326;28;20119;-82
2024/02/09 03:20:55;;;;;;;0.20;0.20;;;;;;;;;;4987679;28;20505;-82
2024/02/09 03:23:21;;;;;;;0.20;0.10;;;;;;;;;;4979682;28;20042;-82
2024/02/09 03:25:48;;;;;;;0.20;0.10;;;;;;;;;;4993533;28;20099;-82
2024/02/09 03:28:16;;;;;;;0.20;0.10;;;;;;;;;;4985421;28;20110;-82
2024/02/09 03:30:42;;;;;;;0.20;0.10;;;;;;;;;;4974551;28;20045;-81
2024/02/09 03:33:08;;;;;;;0.20;0.10;;;;;;;;;;4985062;28;20042;-83
2024/02/09 03:35:34;;;;;;;0.20;0.00;;;;;;;;;;5001901;28;20176;-82
2024/02/09 03:38:00;;;;;;;0.20;0.10;;;;;;;;;;4981019;28;20099;-81
2024/02/09 03:40:27;;;;;;;0.20;0.10;;;;;;;;;;4992288;28;20069;-82
2024/02/09 03:42:53;;;;;;;0.20;0.10;;;;;;;;;;4994296;28;20119;-83
2024/02/09 03:45:19;;;;;;;0.20;0.10;;;;;;;;;;4977102;28;20572;-82
2024/02/09 03:47:45;;;;;;;0.20;0.10;;;;;;;;;;4988939;28;20053;-83
2024/02/09 03:50:13;;;;;;;0.20;0.00;;;;;;;;;;4974094;28;20050;-82
2024/02/09 03:52:44;;;;;;;0.20;0.10;;;;;;;;;;4995855;28;20046;-82
2024/02/09 03:55:16;;;;;;;0.20;0.10;;;;;;;;;;4979638;28;20061;-83
2024/02/09 03:57:44;;;;;;;0.20;0.10;;;;;;;;;;4976412;28;20048;-82
2024/02/09 04:00:15;;;;;;;0.20;0.10;;;;;;;;;;4993841;28;20030;-84
2024/02/09 04:02:41;;;;;;;0.20;0.10;;;;;;;;;;4977933;28;20044;-83
2024/02/09 04:05:07;;;;;;;0.20;0.10;;;;;;;;;;4996086;28;20042;-84
2024/02/09 04:07:33;;;;;;;0.20;0.10;;;;;;;;;;4982575;28;20048;-84
2024/02/09 04:10:02;;;;;;;0.20;0.10;;;;;;;;;;4977233;28;20057;-81
2024/02/09 04:12:29;;;;;;;0.20;0.10;;;;;;;;;;4995620;28;20030;-83
2024/02/09 04:14:55;;;;;;;0.20;0.10;;;;;;;;;;4976975;28;20127;-82
2024/02/09 04:17:28;;;;;;;0.20;0.10;;;;;;;;;;4981528;28;20596;-82
2024/02/09 04:19:54;;;;;;;0.20;0.00;;;;;;;;;;4979468;28;20058;-82
2024/02/09 04:22:20;;;;;;;0.20;0.10;;;;;;;;;;4974906;28;20049;-81
2024/02/09 04:24:47;;;;;;;0.20;0.10;;;;;;;;;;4975082;28;20038;-81
2024/02/09 04:27:17;;;;;;;0.20;0.00;;;;;;;;;;4981233;28;20060;-82
2024/02/09 04:29:43;;;;;;;0.20;0.00;;;;;;;;;;4984367;28;20057;-82
2024/02/09 04:32:09;;;;;;;0.20;0.03;;;;;;;;;;4991881;28;20042;-81
2024/02/09 04:34:35;;;;;;;0.20;0.10;;;;;;;;;;4980306;28;20038;-82
2024/02/09 04:37:01;;;;;;;0.20;0.10;;;;;;;;;;4995098;28;20038;-82
2024/02/09 04:39:27;;;;;;;0.45;0.45;;;;;;;;;;4996683;28;20046;-81
2024/02/09 04:41:53;;;;;;;0.20;0.10;;;;;;;;;;4988704;28;20026;-80
2024/02/09 04:44:22;;;;;;;0.20;0.10;;;;;;;;;;4983524;28;20045;-82
2024/02/09 04:46:48;;;;;;;0.20;0.08;;;;;;;;;;5004554;28;20476;-81
2024/02/09 04:49:14;;;;;;;0.20;0.10;;;;;;;;;;4989916;28;20077;-81
2024/02/09 04:51:41;;;;;;;0.20;0.10;;;;;;;;;;4975918;28;20931;-81
2024/02/09 04:54:07;;;;;;;0.20;0.10;;;;;;;;;;4986359;28;20510;-81
2024/02/09 04:56:33;;;;;;;0.20;0.08;;;;;;;;;;4998854;28;20456;-81
2024/02/09 04:59:00;;;;;;;0.20;0.10;;;;;;;;;;4990340;28;21007;-82
2024/02/09 05:01:27;;;;;;;0.20;0.10;;;;;;;;;;4997927;28;20081;-81
2024/02/09 05:03:57;;;;;;;0.20;0.10;;;;;;;;;;4988123;28;20037;-82
2024/02/09 05:06:24;;;;;;;0.20;0.10;;;;;;;;;;4996570;28;20077;-81
2024/02/09 05:08:50;;;;;;;0.20;0.10;;;;;;;;;;4989461;28;20052;-81
2024/02/09 05:11:16;;;;;;;0.20;0.10;;;;;;;;;;5008639;28;20049;-81
2024/02/09 05:13:42;;;;;;;0.20;0.10;;;;;;;;;;5004313;28;20206;-81
2024/02/09 05:16:10;;;;;;;0.20;0.10;;;;;;;;;;4988870;28;20038;-81
2024/02/09 05:18:37;;;;;;;0.20;0.10;;;;;;;;;;4987057;28;20989;-81
2024/02/09 05:21:03;;;;;;;0.20;0.00;;;;;;;;;;4990253;28;20132;-81
2024/02/09 05:23:29;;;;;;;0.20;0.10;;;;;;;;;;4994752;28;20039;-82
2024/02/09 05:25:55;;;;;;;0.20;0.10;;;;;;;;;;4986389;28;20041;-81
2024/02/09 05:28:23;;;;;;;0.20;0.10;;;;;;;;;;4989385;28;20156;-83
2024/02/09 05:30:49;;;;;;;0.20;0.10;;;;;;;;;;4992198;28;20076;-81
2024/02/09 05:33:16;;;;;;;0.20;0.10;;;;;;;;;;4992560;28;20052;-82
2024/02/09 05:35:43;;;;;;;0.20;0.10;;;;;;;;;;5006846;28;20114;-82
2024/02/09 05:38:09;;;;;;;0.20;0.10;;;;;;;;;;5009010;28;20206;-80
2024/02/09 05:40:35;;;;;;;0.20;0.10;;;;;;;;;;5005084;28;20148;-80
2024/02/09 05:43:01;;;;;;;0.20;0.00;;;;;;;;;;5004193;28;20092;-82
2024/02/09 05:45:27;;;;;;;0.20;0.10;;;;;;;;;;5010205;28;20176;-81
2024/02/09 05:47:54;;;;;;;0.20;0.00;;;;;;;;;;4990308;28;20046;-81
2024/02/09 05:50:21;;;;;;;0.20;0.10;;;;;;;;;;4999280;28;20046;-82
2024/02/09 05:52:56;;;;;;;0.20;0.00;;;;;;;;;;4997276;28;20044;-80
2024/02/09 05:55:23;;;;;;;0.20;0.10;;;;;;;;;;4992218;28;20033;-80
2024/02/09 05:57:54;;;;;;;0.20;0.10;;;;;;;;;;5002035;28;20042;-80
2024/02/09 06:00:20;;;;;;;0.20;0.10;;;;;;;;;;5008470;28;20041;-81
2024/02/09 06:02:50;;;;;;;0.20;0.10;;;;;;;;;;4994911;28;20115;-80
2024/02/09 06:05:16;;;;;;;0.20;0.17;;;;;;;;;;4995705;28;21581;-82
2024/02/09 06:07:42;;;;;;;0.20;0.10;;;;;;;;;;5009612;28;20049;-81
2024/02/09 06:10:10;;;;;;;0.20;0.08;;;;;;;;;;5010966;28;20052;-82
2024/02/09 06:12:37;;;;;;;0.20;0.00;;;;;;;;;;5012209;28;20046;-81
2024/02/09 06:15:05;;;;;;;0.20;0.10;;;;;;;;;;4994541;28;20042;-81
2024/02/09 06:17:31;;;;;;;0.20;0.10;;;;;;;;;;4995851;28;20069;-80
2024/02/09 06:19:58;;;;;;;0.20;0.05;;;;;;;;;;4999932;28;20107;-82
2024/02/09 06:22:25;;;;;;;0.20;0.00;;;;;;;;;;5013320;28;20447;-81
2024/02/09 06:24:57;;;;;;;0.20;0.10;;;;;;;;;;5002642;28;20071;-80
2024/02/09 06:27:24;;;;;;;0.20;0.10;;;;;;;;;;5002276;28;20066;-81
2024/02/09 06:29:52;;;;;;;0.20;0.00;;;;;;;;;;5019261;28;20316;-82
2024/02/09 06:32:19;;;;;;;0.20;0.10;;;;;;;;;;5003334;28;20310;-80
2024/02/09 06:34:45;;;;;;;0.20;0.10;;;;;;;;;;5004842;28;20049;-81
2024/02/09 06:37:12;;;;;;;0.20;0.10;;;;;;;;;;5021771;28;20048;-81
2024/02/09 06:39:38;;;;;;;0.20;0.10;;;;;;;;;;5019089;28;20096;-82
2024/02/09 06:42:04;;;;;;;0.20;0.10;;;;;;;;;;5004375;28;20056;-81
2024/02/09 06:44:32;;;;;;;0.20;0.10;;;;;;;;;;5001388;28;20041;-80
2024/02/09 06:46:59;;;;;;;0.20;0.10;;;;;;;;;;5006320;28;20049;-81
2024/02/09 06:49:28;;;;;;;0.20;0.10;;;;;;;;;;5006150;28;20209;-81
2024/02/09 06:51:54;;;;;;;0.20;0.10;;;;;;;;;;5014084;28;20038;-81
2024/02/09 06:54:22;;;;;;;0.20;0.10;;;;;;;;;;5016106;28;20052;-82
2024/02/09 06:56:53;;;;;;;0.20;0.00;;;;;;;;;;5015180;28;20046;-81
2024/02/09 06:59:22;;;;;;;0.20;0.00;;;;;;;;;;5009700;28;20045;-82
2024/02/09 07:01:48;;;;;;;0.20;0.10;;;;;;;;;;4998583;28;20034;-81
2024/02/09 07:04:17;;;;;;;0.20;0.10;;;;;;;;;;5014573;28;20065;-81
2024/02/09 07:06:47;;;;;;;0.20;0.10;;;;;;;;;;4997902;28;20142;-81
2024/02/09 07:09:17;;;;;;;0.20;0.10;;;;;;;;;;5014784;28;20049;-81
2024/02/09 07:11:45;;;;;;;0.20;0.17;;;;;;;;;;5001894;28;20041;-81
2024/02/09 07:14:11;;;;;;;0.20;0.10;;;;;;;;;;4996679;28;20050;-81
2024/02/09 07:16:37;;;;;;;0.20;0.20;;;;;;;;;;5016615;28;20128;-81
2024/02/09 07:19:03;;;;;;;0.20;0.10;;;;;;;;;;5007532;28;20041;-80
2024/02/09 07:21:29;;;;;;;0.20;0.10;;;;;;;;;;4998503;28;20065;-81
2024/02/09 07:23:57;;;;;;;0.20;0.10;;;;;;;;;;5012623;28;20110;-81
2024/02/09 07:26:25;;;;;;;0.20;0.00;;;;;;;;;;4999890;28;20052;-80
2024/02/09 07:28:52;;;;;;;0.20;0.10;;;;;;;;;;5013140;28;20056;-80
2024/02/09 07:31:21;;;;;;;0.20;0.10;;;;;;;;;;5017148;28;20073;-82
2024/02/09 07:33:47;;;;;;;0.20;0.00;;;;;;;;;;5010150;28;20042;-81
2024/02/09 07:36:13;;;;;;;0.20;0.10;;;;;;;;;;5008744;28;20044;-82
2024/02/09 07:38:39;;;;;;;0.20;0.10;;;;;;;;;;5013655;28;20073;-81
2024/02/09 07:41:05;;;;;;;0.20;0.10;;;;;;;;;;4999219;28;20042;-82
2024/02/09 07:43:32;;;;;;;0.20;0.10;;;;;;;;;;5017727;28;20042;-82
2024/02/09 07:45:58;;;;;;;0.20;0.10;;;;;;;;;;4994697;28;20101;-82
2024/02/09 07:48:25;;;;;;;0.20;0.10;;;;;;;;;;5011744;28;20045;-80
2024/02/09 07:50:52;;;;;;;0.20;0.10;;;;;;;;;;4995513;28;20030;-80
2024/02/09 07:53:18;;;;;;;0.20;0.10;;;;;;;;;;5005220;28;20048;-81
2024/02/09 07:55:44;;;;;;;0.20;0.00;;;;;;;;;;4997215;28;20038;-80
2024/02/09 07:58:11;;;;;;;0.20;0.10;;;;;;;;;;4995818;28;20038;-81
2024/02/09 08:00:37;;;;;;;0.20;0.10;;;;;;;;;;5013116;28;20042;-83
2024/02/09 08:03:03;;;;;;;0.20;0.10;;;;;;;;;;5006999;28;20512;-79
2024/02/09 08:05:29;;;;;;;0.20;0.00;;;;;;;;;;5010119;28;20061;-80
2024/02/09 08:07:55;;;;;;;0.20;0.10;;;;;;;;;;5011503;28;20042;-80
2024/02/09 08:10:21;;;;;;;0.20;0.10;;;;;;;;;;4997118;28;20042;-80
2024/02/09 08:12:47;;;;;;;0.20;0.00;;;;;;;;;;4998332;28;20080;-80
2024/02/09 08:15:13;;;;;;;0.20;0.10;;;;;;;;;;4995234;28;20545;-81
2024/02/09 08:17:48;;;;;;;0.20;0.10;;;;;;;;;;5012035;28;20061;-81
2024/02/09 08:20:14;;;;;;;0.20;0.13;;;;;;;;;;5004792;28;20046;-80
2024/02/09 08:22:44;;;;;;;0.32;0.30;;;;;;;;;;4991657;28;20057;-80
2024/02/09 08:25:10;;;;;;;0.20;0.10;;;;;;;;;;5005857;28;20046;-80
2024/02/09 08:27:36;;;;;;;0.20;0.10;;;;;;;;;;5009721;28;20050;-81
2024/02/09 08:30:04;;;;;;;0.20;0.10;;;;;;;;;;4992744;28;20030;-80
2024/02/09 08:32:30;;;;;;;0.20;0.10;;;;;;;;;;5006584;28;20073;-81
2024/02/09 08:34:56;;;;;;;0.20;0.10;;;;;;;;;;4996792;28;20037;-79
2024/02/09 08:37:24;;;;;;;0.20;0.00;;;;;;;;;;5006171;28;20057;-80
2024/02/09 08:39:50;;;;;;;0.20;0.00;;;;;;;;;;5007061;28;20041;-81
2024/02/09 08:42:17;;;;;;;0.20;0.00;;;;;;;;;;5010831;28;20407;-79
2024/02/09 08:44:43;;;;;;;0.20;0.08;;;;;;;;;;5012343;28;20037;-80
2024/02/09 08:47:12;;;;;;;0.20;0.10;;;;;;;;;;4988953;28;20109;-80
2024/02/09 08:49:39;;;;;;;0.20;0.10;;;;;;;;;;5008938;28;20050;-81
2024/02/09 08:52:05;;;;;;;0.20;0.00;;;;;;;;;;4994570;28;20038;-81
2024/02/09 08:54:32;;;;;;;0.20;0.00;;;;;;;;;;5004929;28;20121;-80
2024/02/09 08:56:59;;;;;;;0.20;0.03;;;;;;;;;;4991002;28;20046;-81
2024/02/09 08:59:25;;;;;;;0.20;0.08;;;;;;;;;;4993606;28;20038;-81
2024/02/09 09:01:51;;;;;;;0.20;0.00;;;;;;;;;;5004354;28;20503;-82
2024/02/09 09:04:18;;;;;;;0.20;0.10;;;;;;;;;;4990940;28;20062;-82
2024/02/09 09:06:45;;;;;;;0.20;0.10;;;;;;;;;;4990575;28;20048;-82
2024/02/09 09:09:14;;;;;;;0.20;0.00;;;;;;;;;;5007185;28;20817;-82
2024/02/09 09:11:41;;;;;;;0.20;0.00;;;;;;;;;;4991156;28;20456;-81
2024/02/09 09:14:08;;;;;;;0.20;0.10;;;;;;;;;;5003356;28;20514;-85
2024/02/09 09:16:34;;;;;;;0.20;0.00;;;;;;;;;;5008261;28;20074;-85
2024/02/09 09:19:05;;;;;;;0.20;0.00;;;;;;;;;;4991450;28;20046;-84
2024/02/09 09:21:31;;;;;;;0.20;0.00;;;;;;;;;;4987153;28;20065;-85
2024/02/09 09:23:59;;;;;;;0.20;0.05;;;;;;;;;;4989546;28;20072;-82
2024/02/09 09:26:28;;;;;;;0.20;0.00;;;;;;;;;;4984061;28;20379;-83
2024/02/09 09:28:54;;;;;;;0.20;0.10;;;;;;;;;;4984310;28;20524;-85
2024/02/09 09:31:20;;;;;;;0.20;0.05;;;;;;;;;;4988404;28;20089;-82
2024/02/09 09:33:46;;;;;;;0.20;0.05;;;;;;;;;;5003777;28;20396;-83
2024/02/09 09:36:12;;;;;;;0.20;0.10;;;;;;;;;;5002877;28;20046;-84
2024/02/09 09:38:38;;;;;;;0.20;0.00;;;;;;;;;;5002529;28;20041;-82
2024/02/09 09:41:04;;;;;;;0.20;0.00;;;;;;;;;;4990188;28;20037;-84
2024/02/09 09:43:31;;;;;;;0.20;0.10;;;;;;;;;;4995629;28;20169;-84
2024/02/09 09:46:00;;;;;;;0.20;0.00;;;;;;;;;;4993797;28;20081;-84
2024/02/09 09:48:27;;;;;;;0.20;0.00;;;;;;;;;;4994374;28;20042;-83
2024/02/09 09:50:53;;;;;;;0.20;0.00;;;;;;;;;;5004881;28;20132;-84
2024/02/09 09:53:30;;;;;;;0.20;0.00;;;;;;;;;;4991138;28;20051;-84
2024/02/09 09:55:58;;;;;;;0.20;0.10;;;;;;;;;;4990183;28;20050;-85
2024/02/09 09:58:25;;;;;;;0.20;0.10;;;;;;;;;;4990117;28;20034;-84
2024/02/09 10:00:52;;;;;;;0.20;0.00;;;;;;;;;;4990112;28;20577;-83
2024/02/09 10:03:18;;;;;;;0.52;0.35;;;;;;;;;;4986773;28;20038;-81
2024/02/09 10:05:45;;;;;;;0.20;0.10;;;;;;;;;;4988160;28;20050;-83
2024/02/09 10:08:12;;;;;;;0.20;0.00;;;;;;;;;;4985765;28;20419;-84
2024/02/09 10:10:39;;;;;;;0.20;0.00;;;;;;;;;;4990994;28;20045;-82
2024/02/09 10:13:12;;;;;;;0.20;0.10;;;;;;;;;;5005604;28;20038;-85
2024/02/09 10:15:41;;;;;;;0.20;0.05;;;;;;;;;;5008018;28;20121;-83
2024/02/09 10:18:10;;;;;;;0.20;0.10;;;;;;;;;;4988259;28;20034;-83
2024/02/09 10:20:39;;;;;;;0.20;0.10;;;;;;;;;;5006492;28;20125;-80
2024/02/09 10:23:05;;;;;;;0.20;0.00;;;;;;;;;;5005747;28;20034;-85
2024/02/09 10:25:34;;;;;;;0.20;0.08;;;;;;;;;;4989122;28;20044;-84
2024/02/09 10:28:01;;;;;;;0.20;0.00;;;;;;;;;;4990042;28;20144;-82
2024/02/09 10:30:29;;;;;;;0.22;0.15;;;;;;;;;;4989039;28;20473;-85
2024/02/09 10:32:55;;;;;;;0.20;0.08;;;;;;;;;;5008559;28;20071;-83
2024/02/09 10:35:21;;;;;;;0.20;0.10;;;;;;;;;;5008237;28;20080;-85
2024/02/09 10:37:47;;;;;;;0.20;0.00;;;;;;;;;;4992746;28;20077;-85
2024/02/09 10:40:13;;;;;;;0.20;0.00;;;;;;;;;;4992184;28;20095;-84
2024/02/09 10:42:40;;;;;;;0.20;0.10;;;;;;;;;;5001024;28;20044;-84
2024/02/09 10:45:10;;;;;;;0.20;0.00;;;;;;;;;;5003899;28;20092;-84
2024/02/09 10:47:40;;;;;;;0.20;0.10;;;;;;;;;;4988910;28;20046;-85
2024/02/09 10:50:07;;;;;;;0.20;0.10;;;;;;;;;;4992676;28;20029;-82
2024/02/09 10:52:38;;;;;;;0.20;0.00;;;;;;;;;;5005728;28;20038;-83
2024/02/09 10:55:09;;;;;;;0.20;0.10;;;;;;;;;;4986031;28;20038;-85
2024/02/09 10:57:35;;;;;;;0.20;0.08;;;;;;;;;;5004131;28;20034;-86
2024/02/09 11:00:05;;;;;;;0.20;0.00;;;;;;;;;;4988763;28;20049;-85
2024/02/09 11:02:33;;;;;;;0.20;0.10;;;;;;;;;;4989444;28;20042;-84
2024/02/09 11:05:03;;;;;;;0.20;0.00;;;;;;;;;;5007246;28;20076;-85
2024/02/09 11:07:29;;;;;;;0.20;0.10;;;;;;;;;;4990187;28;20057;-84
2024/02/09 11:09:56;;;;;;;0.20;0.00;;;;;;;;;;5003467;28;20041;-85
2024/02/09 11:12:22;;;;;;;0.20;0.10;;;;;;;;;;4992429;28;20116;-83
2024/02/09 11:14:48;;;;;;;0.20;0.00;;;;;;;;;;4988840;28;20065;-86
2024/02/09 11:17:21;;;;;;;0.30;0.30;;;;;;;;;;4987296;28;20046;-85
2024/02/09 11:19:48;;;;;;;0.20;0.00;;;;;;;;;;4989146;28;20073;-84
2024/02/09 11:22:14;;;;;;;0.20;0.10;;;;;;;;;;5003876;28;20403;-83
2024/02/09 11:24:46;;;;;;;0.20;0.10;;;;;;;;;;4985660;28;20034;-84
2024/02/09 11:27:13;;;;;;;0.20;0.00;;;;;;;;;;5003596;28;20058;-84
2024/02/09 11:29:39;;;;;;;0.20;0.00;;;;;;;;;;4989565;28;20073;-84
2024/02/09 11:32:08;;;;;;;0.20;0.10;;;;;;;;;;4984166;28;20046;-84
2024/02/09 11:34:35;;;;;;;0.20;0.00;;;;;;;;;;4987770;28;20527;-84
2024/02/09 11:37:02;;;;;;;0.20;0.10;;;;;;;;;;4996330;28;20038;-84
2024/02/09 11:39:28;;;;;;;0.20;0.10;;;;;;;;;;4985618;28;20065;-84
2024/02/09 11:41:55;;;;;;;0.20;0.00;;;;;;;;;;4992732;28;21042;-85
2024/02/09 11:44:21;;;;;;;0.20;0.00;;;;;;;;;;4986220;28;20479;-81
2024/02/09 11:46:48;;;;;;;0.20;0.10;;;;;;;;;;4989287;28;20053;-82
2024/02/09 11:49:14;;;;;;;0.20;0.00;;;;;;;;;;5002713;28;20046;-85
2024/02/09 11:51:46;;;;;;;0.20;0.00;;;;;;;;;;5004229;28;20084;-88
2024/02/09 11:54:13;;;;;;;0.20;0.10;;;;;;;;;;4992651;28;20478;-86
2024/02/09 11:56:40;;;;;;;0.22;0.13;;;;;;;;;;4995889;28;20419;-84
2024/02/09 11:59:06;;;;;;;0.20;0.00;;;;;;;;;;5003229;28;20046;-85
2024/02/09 12:01:33;;;;;;;0.20;0.10;;;;;;;;;;5006061;28;20038;-84
2024/02/09 12:04:00;;;;;;;0.20;0.10;;;;;;;;;;5002243;28;20034;-85
2024/02/09 12:06:29;;;;;;;0.40;0.22;;;;;;;;;;4990270;28;20534;-83
2024/02/09 12:08:56;;;;;;;0.20;0.10;;;;;;;;;;5002268;28;20120;-86
2024/02/09 12:11:22;;;;;;;0.20;0.00;;;;;;;;;;4986826;28;20058;-85
2024/02/09 12:13:49;;;;;;;0.20;0.00;;;;;;;;;;4981917;28;20045;-83
2024/02/09 12:16:18;;;;;;;0.20;0.10;;;;;;;;;;4987248;28;20125;-83
2024/02/09 12:18:45;;;;;;;0.20;0.00;;;;;;;;;;4996297;28;20041;-84
2024/02/09 12:21:15;;;;;;;0.20;0.00;;;;;;;;;;4983720;28;20093;-85
2024/02/09 12:23:41;;;;;;;0.20;0.10;;;;;;;;;;5003449;28;20584;-84
2024/02/09 12:26:10;;;;;;;0.20;0.00;;;;;;;;;;4987480;28;20110;-86
2024/02/09 12:28:36;;;;;;;0.35;0.20;;;;;;;;;;4997897;28;20039;-85
2024/02/09 12:31:06;;;;;;;0.20;0.00;;;;;;;;;;5003796;28;20049;-85
2024/02/09 12:33:33;;;;;;;0.20;0.10;;;;;;;;;;4988696;28;20509;-85
2024/02/09 12:36:07;;;;;;;0.20;0.00;;;;;;;;;;4989990;28;20525;-86
2024/02/09 12:38:40;;;;;;;0.20;0.03;;;;;;;;;;4987050;28;20246;-85
2024/02/09 12:41:07;;;;;;;0.20;0.10;;;;;;;;;;5001475;28;20045;-84
2024/02/09 12:43:34;;;;;;;0.20;0.00;;;;;;;;;;4988707;28;20034;-86
2024/02/09 12:46:00;;;;;;;0.20;0.10;;;;;;;;;;4983885;28;20515;-84
2024/02/09 12:48:28;;;;;;;0.20;0.10;;;;;;;;;;4985220;28;20069;-84
2024/02/09 12:50:56;;;;;;;0.20;0.00;;;;;;;;;;4983997;28;20042;-84
2024/02/09 12:53:26;;;;;;;0.20;0.10;;;;;;;;;;5000284;28;20049;-87
2024/02/09 12:55:55;;;;;;;0.20;0.10;;;;;;;;;;4998880;28;20613;-91
2024/02/09 12:58:22;;;;;;;0.20;0.10;;;;;;;;;;4988496;28;20041;-86
2024/02/09 13:00:49;;;;;;;0.20;0.10;;;;;;;;;;4985058;28;20702;-84
2024/02/09 13:03:15;;;;;;;0.20;0.10;;;;;;;;;;5001982;28;20124;-82
2024/02/09 13:05:41;;;;;;;0.20;0.00;;;;;;;;;;4986448;28;20049;-84
2024/02/09 13:08:09;;;;;;;0.20;0.10;;;;;;;;;;4986748;28;20042;-83
2024/02/09 13:10:35;;;;;;;0.20;0.10;;;;;;;;;;4984745;28;20060;-85
2024/02/09 13:13:07;;;;;;;0.40;0.40;;;;;;;;;;4980795;28;20057;-84
2024/02/09 13:15:34;;;;;;;0.20;0.10;;;;;;;;;;4986527;28;20035;-83
2024/02/09 13:18:01;;;;;;;0.20;0.00;;;;;;;;;;5004366;28;20042;-84
2024/02/09 13:20:27;;;;;;;0.28;0.15;;;;;;;;;;4988005;28;20041;-83
2024/02/09 13:22:55;;;;;;;0.20;0.00;;;;;;;;;;5009720;28;20494;-87
2024/02/09 13:25:22;;;;;;;0.20;0.10;;;;;;;;;;5004067;28;20363;-84
2024/02/09 13:27:50;;;;;;;0.20;0.00;;;;;;;;;;4986980;28;20034;-83
2024/02/09 13:30:19;;;;;;;0.20;0.00;;;;;;;;;;5005227;28;20050;-84
2024/02/09 13:32:49;;;;;;;0.20;0.10;;;;;;;;;;4991189;28;20093;-82
2024/02/09 13:35:18;;;;;;;0.20;0.00;;;;;;;;;;4991777;28;20077;-87
2024/02/09 13:37:49;;;;;;;0.20;0.10;;;;;;;;;;5007533;28;20076;-83
2024/02/09 13:40:16;;;;;;;0.20;0.10;;;;;;;;;;4992045;28;20073;-85
2024/02/09 13:42:55;;;;;;;0.20;0.00;;;;;;;;;;5008379;28;20116;-86
2024/02/09 13:45:23;;;;;;;0.20;0.00;;;;;;;;;;4992113;28;20066;-84
2024/02/09 13:47:51;;;;;;;0.20;0.00;;;;;;;;;;4988757;28;20045;-82
2024/02/09 13:50:19;;;;;;;0.30;0.20;;;;;;;;;;4994045;28;20065;-84
2024/02/09 13:52:48;;;;;;;0.20;0.03;;;;;;;;;;4986977;28;20065;-83
2024/02/09 13:55:15;;;;;;;0.20;0.03;;;;;;;;;;5006993;28;20038;-83
2024/02/09 13:57:45;;;;;;;0.20;0.08;;;;;;;;;;4992294;28;20038;-81
2024/02/09 14:00:13;;;;;;;0.20;0.10;;;;;;;;;;5003699;28;20082;-83
2024/02/09 14:02:42;;;;;;;0.20;0.10;;;;;;;;;;5009756;28;20499;-84
2024/02/09 14:05:11;;;;;;;0.20;0.08;;;;;;;;;;4990838;28;20042;-85
2024/02/09 14:07:43;;;;;;;0.20;0.03;;;;;;;;;;5007931;28;20041;-85
2024/02/09 14:10:13;;;;;;;0.20;0.00;;;;;;;;;;5004131;28;20521;-85
2024/02/09 14:12:39;;;;;;;0.20;0.10;;;;;;;;;;4985793;28;20403;-86
2024/02/09 14:15:08;;;;;;;0.20;0.10;;;;;;;;;;4991400;28;20121;-87
2024/02/09 14:17:35;;;;;;;0.20;0.10;;;;;;;;;;4988166;28;20061;-85
2024/02/09 14:20:05;;;;;;;0.20;0.10;;;;;;;;;;5007724;28;20125;-85
2024/02/09 14:22:31;;;;;;;0.20;0.00;;;;;;;;;;4995844;28;20050;-84
2024/02/09 14:24:58;;;;;;;0.22;0.10;;;;;;;;;;5000369;28;20062;-86
2024/02/09 14:27:29;;;;;;;0.20;0.10;;;;;;;;;;4990501;28;20050;-85
2024/02/09 14:30:02;;;;;;;0.20;0.00;;;;;;;;;;4991210;28;20042;-85
2024/02/09 14:32:29;;;;;;;0.20;0.03;;;;;;;;;;5006559;28;20046;-86
2024/02/09 14:34:55;;;;;;;0.20;0.00;;;;;;;;;;4984086;28;20527;-85
2024/02/09 14:37:21;;;;;;;0.20;0.00;;;;;;;;;;4988650;28;20042;-89
2024/02/09 14:39:47;;;;;;;0.20;0.00;;;;;;;;;;4992587;28;20044;-85
2024/02/09 14:42:14;;;;;;;0.20;0.10;;;;;;;;;;4992157;28;20049;-83
2024/02/09 14:44:47;;;;;;;0.20;0.10;;;;;;;;;;4991195;28;20046;-85
2024/02/09 14:47:16;;;;;;;0.20;0.10;;;;;;;;;;4985968;28;20045;-84
2024/02/09 14:49:46;;;;;;;0.20;0.10;;;;;;;;;;5003093;28;20522;-85
2024/02/09 14:52:24;;;;;;;0.20;0.10;;;;;;;;;;4991998;28;20042;-85
2024/02/09 14:54:52;;;;;;;0.20;0.05;;;;;;;;;;4999366;28;20053;-85
2024/02/09 14:57:21;;;;;;;0.20;0.10;;;;;;;;;;4991545;28;20038;-85
2024/02/09 14:59:47;;;;;;;0.20;0.00;;;;;;;;;;5008393;28;20039;-85
2024/02/09 15:02:13;;;;;;;0.20;0.00;;;;;;;;;;4986800;28;20088;-84
2024/02/09 15:04:41;;;;;;;0.20;0.00;;;;;;;;;;4984964;28;20042;-87
2024/02/09 15:07:07;;;;;;;0.20;0.00;;;;;;;;;;4992548;28;20178;-87
2024/02/09 15:09:36;;;;;;;0.20;0.10;;;;;;;;;;4989438;28;20042;-86
2024/02/09 15:12:03;;;;;;;0.20;0.00;;;;;;;;;;5005689;28;20041;-86
2024/02/09 15:14:38;;;;;;;0.20;0.00;;;;;;;;;;5010326;28;20058;-86
2024/02/09 15:17:04;;;;;;;0.20;0.10;;;;;;;;;;4991616;28;20037;-86
2024/02/09 15:19:30;;;;;;;0.20;0.17;;;;;;;;;;4990001;28;20049;-87
2024/02/09 15:21:59;;;;;;;0.20;0.10;;;;;;;;;;4991457;28;20030;-87
2024/02/09 15:24:25;;;;;;;0.30;0.20;;;;;;;;;;5001238;28;20030;-85
2024/02/09 15:26:55;;;;;;;0.20;0.00;;;;;;;;;;4981435;28;21004;-86
2024/02/09 15:29:37;;;;;;;0.20;0.10;;;;;;;;;;4985324;28;20042;-86
2024/02/09 15:32:13;;;;;;;0.52;0.45;;;;;;;;;;4988607;28;20516;-89
2024/02/09 15:34:57;;;;;;;0.20;0.00;;;;;;;;;;4986015;28;20049;-86
2024/02/09 15:37:29;;;;;;;0.20;0.08;;;;;;;;;;4987752;28;20065;-87
2024/02/09 15:39:55;;;;;;;0.20;0.00;;;;;;;;;;5000869;28;20038;-84
2024/02/09 15:42:21;;;;;;;0.20;0.08;;;;;;;;;;5002150;28;20041;-86
2024/02/09 15:44:48;;;;;;;0.20;0.00;;;;;;;;;;5003595;28;20547;-85
2024/02/09 15:47:16;;;;;;;0.20;0.10;;;;;;;;;;5003462;28;20046;-83
2024/02/09 15:49:42;;;;;;;0.20;0.00;;;;;;;;;;4997555;28;20139;-84
2024/02/09 15:52:08;;;;;;;0.20;0.00;;;;;;;;;;4984653;28;20049;-84
2024/02/09 15:54:40;;;;;;;0.20;0.00;;;;;;;;;;4982646;28;20046;-85
2024/02/09 15:57:09;;;;;;;0.20;0.00;;;;;;;;;;4984132;28;20123;-88
2024/02/09 15:59:45;;;;;;;0.20;0.00;;;;;;;;;;4982201;28;20030;-88
2024/02/09 16:02:32;;;;;;;0.25;0.10;;;;;;;;;;4993469;28;20044;-87
2024/02/09 16:05:04;;;;;;;0.20;0.10;;;;;;;;;;4987751;28;20222;-84
2024/02/09 16:07:40;;;;;;;0.20;0.10;;;;;;;;;;4979509;28;20654;-85
2024/02/09 16:10:16;;;;;;;0.20;0.10;;;;;;;;;;4979896;28;20046;-86
2024/02/09 16:12:58;;;;;;;0.30;0.30;;;;;;;;;;4995804;28;20048;-85
2024/02/09 16:15:27;;;;;;;0.30;0.20;;;;;;;;;;5001056;28;20361;-85
2024/02/09 16:18:10;;;;;;;0.43;0.32;;;;;;;;;;4999381;28;20060;-87
2024/02/09 16:26:18;;;;;;;0.20;0.20;;;;;;;;;;2846913;22;20136;-87
2024/02/09 16:28:55;;;;;;;0.47;0.20;;;;;;;;;;4983552;28;20048;-88
2024/02/09 16:31:29;;;;;;;0.20;0.00;;;;;;;;;;4959734;28;20396;-87
2024/02/09 16:34:35;;;;;;;;;;;;;;;;;;;;;
2024/02/09 16:37:50;;;;;;;0.20;0.00;;;;;;;;;;4933808;28;20534;-86
2024/02/09 16:56:31;;;;;;;0.20;0.03;;;;;;;;;;5021628;28;20060;-85
2024/02/09 17:09:06;;;;;;;0.20;0.10;;;;;;;;;;5007122;28;20072;-85
2024/02/09 17:15:31;;;;;;;0.20;0.10;;;;;;;;;;4944264;28;20149;-85
2024/02/09 17:22:03;;;;;;;0.20;0.10;;;;;;;;;;4970339;28;20078;-87
2024/02/09 17:28:37;;;;;;;0.20;0.17;;;;;;;;;;4963934;28;20058;-86
2024/02/09 17:31:35;;;;;;;0.20;0.10;;;;;;;;;;4905904;28;20055;-85
2024/02/09 17:34:06;;;;;;;0.20;0.10;;;;;;;;;;4957518;28;21030;-87
2024/02/09 17:37:08;;;;;;;0.20;0.10;;;;;;;;;;4984822;28;20113;-87
2024/02/09 17:39:37;;;;;;;0.20;0.10;;;;;;;;;;4985620;28;20041;-85
2024/02/09 17:42:14;;;;;;;0.20;0.10;;;;;;;;;;5001870;28;20133;-84
2024/02/09 17:44:48;;;;;;;0.60;0.50;;;;;;;;;;4999930;28;20045;-85
2024/02/09 17:47:38;;;;;;;0.20;0.10;;;;;;;;;;5001268;28;20041;-84
2024/02/09 17:53:43;;;;;;;0.20;0.00;;;;;;;;;;4917082;28;20053;-83
2024/02/09 17:59:32;;;;;;;0.20;0.05;;;;;;;;;;4995769;28;20143;-84
2024/02/09 18:01:58;;;;;;;0.30;0.20;;;;;;;;;;5000780;28;20045;-86